الصفحة الرئيسية
METAR-TAF:

METAR-TAF

مطار :

بورتوروز, سلوفينيا

دائرة عرض: 45-31N, خط طول: 013-34E, ارتفاع: 95 متر

مراقبة الطقس الحالي

تاريخ ووقت الإصدار 27 دقيقة قبل الساعة 13:30UTC
ريح 8 عقدة من الغرب/الجنوب الغربي, الاتجاه يتراوح بين الجنوب/الجنوب الغربي و الغرب
درجة الحرارة 25°درجة مئوية
الرطوبة 18%
ضغط 1021 hPa
الرؤية 10 كم أو أكثر
الغيوم لا تقل 1500 م ولا وجود لمزنة ركامية السحاب الأسود

METAR: LJPZ 101330Z 25008KT 210V280 CAVOK 25/M01 Q1021

زمن: 15:57 (13:57 UTC)

توقعات

تاريخ ووقت الإصدار 2ساعات و 57 دقيقة قبل الساعة 11:00UTC
التوقعات صالحة من10 الساعة 12 UTC إلى 10 الساعة 21 UTC
ريح 5 عقدة من الغرب/الشمال الغربي
الرؤية 10 كم أو أكثر
الغيوم لا تقل 1500 م ولا وجود لمزنة ركامية السحاب الأسود

TAF: LJPZ 101100Z 1012/1021 30005KT CAVOK

أرصاد الطقس والتوقعات من أكثر من 4000 مطار (تقارير الطقس للمطار METAR والتنبؤ بالطقس بالمطارTAF).

المحطات المتاحة هي النقط الصفراء والحمراء على الخريطة.

حرك المؤشر فوق النقطة لمعرفة اسم المحطة.

ثم انقر لمعرفة أرصاد وتوقعات الطقس.

لتغيير الخارطة: اضغط على الأزرار الخضراء مع رمز الصليب الأسود للتكبير. على الزر الأخضر مع شرطة للتصغير، أو على الأسهم الخضراء للخرائط المجاورة.


METAR-TAF: